sensor_id;sensor_type;location;lat;lon;timestamp;pressure;altitude;pressure_sealevel;temperature
67758;BMP180;54562;47.620;18.786;2023-04-01T00:00:21;97108.00;;;8.20
67758;BMP180;54562;47.620;18.786;2023-04-01T00:06:45;97103.60;;;8.20
67758;BMP180;54562;47.620;18.786;2023-04-01T00:09:55;97106.00;;;8.20
67758;BMP180;54562;47.620;18.786;2023-04-01T00:13:04;97103.40;;;8.20
67758;BMP180;54562;47.620;18.786;2023-04-01T00:16:13;97108.40;;;8.20
67758;BMP180;54562;47.620;18.786;2023-04-01T00:19:24;97111.20;;;8.20
67758;BMP180;54562;47.620;18.786;2023-04-01T00:22:32;97111.40;;;8.20
67758;BMP180;54562;47.620;18.786;2023-04-01T00:25:40;97108.20;;;8.22
67758;BMP180;54562;47.620;18.786;2023-04-01T00:28:50;97109.60;;;8.26
67758;BMP180;54562;47.620;18.786;2023-04-01T00:31:58;97119.80;;;8.30
67758;BMP180;54562;47.620;18.786;2023-04-01T00:35:08;97106.40;;;8.30
67758;BMP180;54562;47.620;18.786;2023-04-01T00:38:17;97101.60;;;8.30
67758;BMP180;54562;47.620;18.786;2023-04-01T00:41:25;97099.00;;;8.30
67758;BMP180;54562;47.620;18.786;2023-04-01T00:44:38;97089.60;;;8.30
67758;BMP180;54562;47.620;18.786;2023-04-01T00:47:46;97083.80;;;8.30
67758;BMP180;54562;47.620;18.786;2023-04-01T00:50:59;97087.60;;;8.24
67758;BMP180;54562;47.620;18.786;2023-04-01T00:54:10;97096.20;;;8.20
67758;BMP180;54562;47.620;18.786;2023-04-01T00:57:21;97095.80;;;8.20
67758;BMP180;54562;47.620;18.786;2023-04-01T01:00:31;97099.20;;;8.20
67758;BMP180;54562;47.620;18.786;2023-04-01T01:03:39;97101.80;;;8.20
67758;BMP180;54562;47.620;18.786;2023-04-01T01:06:58;97096.60;;;8.20
67758;BMP180;54562;47.620;18.786;2023-04-01T01:10:18;97099.80;;;8.20
67758;BMP180;54562;47.620;18.786;2023-04-01T01:13:34;97098.60;;;8.20
67758;BMP180;54562;47.620;18.786;2023-04-01T01:16:48;97096.60;;;8.20
67758;BMP180;54562;47.620;18.786;2023-04-01T01:24:14;97085.40;;;8.20
67758;BMP180;54562;47.620;18.786;2023-04-01T01:27:25;97084.40;;;8.20
67758;BMP180;54562;47.620;18.786;2023-04-01T01:30:43;97082.40;;;8.20
67758;BMP180;54562;47.620;18.786;2023-04-01T01:34:14;97082.80;;;8.20
67758;BMP180;54562;47.620;18.786;2023-04-01T01:37:27;97089.00;;;8.20
67758;BMP180;54562;47.620;18.786;2023-04-01T01:40:41;97091.40;;;8.20
67758;BMP180;54562;47.620;18.786;2023-04-01T01:43:52;97089.40;;;8.20
67758;BMP180;54562;47.620;18.786;2023-04-01T01:47:03;97089.80;;;8.20
67758;BMP180;54562;47.620;18.786;2023-04-01T01:50:13;97085.40;;;8.20
67758;BMP180;54562;47.620;18.786;2023-04-01T01:53:19;97089.80;;;8.20
67758;BMP180;54562;47.620;18.786;2023-04-01T01:56:31;97083.60;;;8.20
67758;BMP180;54562;47.620;18.786;2023-04-01T01:59:44;97082.20;;;8.20
67758;BMP180;54562;47.620;18.786;2023-04-01T02:02:54;97079.00;;;8.20
67758;BMP180;54562;47.620;18.786;2023-04-01T02:06:05;97079.00;;;8.20
67758;BMP180;54562;47.620;18.786;2023-04-01T02:09:15;97080.40;;;8.20
67758;BMP180;54562;47.620;18.786;2023-04-01T02:12:25;97076.40;;;8.20
67758;BMP180;54562;47.620;18.786;2023-04-01T02:18:38;97075.60;;;8.20
67758;BMP180;54562;47.620;18.786;2023-04-01T02:21:47;97071.00;;;8.20
67758;BMP180;54562;47.620;18.786;2023-04-01T02:25:04;97067.40;;;8.20
67758;BMP180;54562;47.620;18.786;2023-04-01T02:28:15;97069.20;;;8.20
67758;BMP180;54562;47.620;18.786;2023-04-01T02:31:28;97063.60;;;8.20
67758;BMP180;54562;47.620;18.786;2023-04-01T02:34:37;97066.00;;;8.20
67758;BMP180;54562;47.620;18.786;2023-04-01T02:37:48;97061.40;;;8.22
67758;BMP180;54562;47.620;18.786;2023-04-01T02:41:04;97056.80;;;8.28
67758;BMP180;54562;47.620;18.786;2023-04-01T02:44:14;97048.80;;;8.30
67758;BMP180;54562;47.620;18.786;2023-04-01T02:47:23;97055.80;;;8.26
67758;BMP180;54562;47.620;18.786;2023-04-01T02:50:31;97052.80;;;8.20
67758;BMP180;54562;47.620;18.786;2023-04-01T02:53:39;97058.40;;;8.20
67758;BMP180;54562;47.620;18.786;2023-04-01T02:56:47;97047.40;;;8.20
67758;BMP180;54562;47.620;18.786;2023-04-01T02:59:55;97043.60;;;8.20
67758;BMP180;54562;47.620;18.786;2023-04-01T03:03:03;97040.00;;;8.16
67758;BMP180;54562;47.620;18.786;2023-04-01T03:06:15;97036.20;;;8.10
67758;BMP180;54562;47.620;18.786;2023-04-01T03:09:24;97034.80;;;8.10
67758;BMP180;54562;47.620;18.786;2023-04-01T03:12:31;97039.00;;;8.04
67758;BMP180;54562;47.620;18.786;2023-04-01T03:15:41;97034.80;;;8.00
67758;BMP180;54562;47.620;18.786;2023-04-01T03:18:49;97043.40;;;8.00
67758;BMP180;54562;47.620;18.786;2023-04-01T03:21:59;97045.80;;;7.90
67758;BMP180;54562;47.620;18.786;2023-04-01T03:25:09;97050.60;;;7.90
67758;BMP180;54562;47.620;18.786;2023-04-01T03:28:17;97052.60;;;7.90
67758;BMP180;54562;47.620;18.786;2023-04-01T03:31:25;97051.60;;;7.80
67758;BMP180;54562;47.620;18.786;2023-04-01T03:34:34;97062.40;;;7.80
67758;BMP180;54562;47.620;18.786;2023-04-01T03:37:43;97072.80;;;7.80
67758;BMP180;54562;47.620;18.786;2023-04-01T03:40:51;97070.40;;;7.80
67758;BMP180;54562;47.620;18.786;2023-04-01T03:43:59;97072.20;;;7.72
67758;BMP180;54562;47.620;18.786;2023-04-01T03:47:07;97085.40;;;7.70
67758;BMP180;54562;47.620;18.786;2023-04-01T03:50:17;97088.20;;;7.70
67758;BMP180;54562;47.620;18.786;2023-04-01T03:53:26;97081.60;;;7.60
67758;BMP180;54562;47.620;18.786;2023-04-01T03:59:40;97085.80;;;7.60
67758;BMP180;54562;47.620;18.786;2023-04-01T04:02:49;97084.00;;;7.60
67758;BMP180;54562;47.620;18.786;2023-04-01T04:05:57;97083.40;;;7.50
67758;BMP180;54562;47.620;18.786;2023-04-01T04:09:05;97095.80;;;7.50
67758;BMP180;54562;47.620;18.786;2023-04-01T04:12:14;97096.60;;;7.50
67758;BMP180;54562;47.620;18.786;2023-04-01T04:15:22;97099.80;;;7.40
67758;BMP180;54562;47.620;18.786;2023-04-01T04:18:30;97099.80;;;7.40
67758;BMP180;54562;47.620;18.786;2023-04-01T04:21:38;97092.80;;;7.38
67758;BMP180;54562;47.620;18.786;2023-04-01T04:24:46;97090.00;;;7.30
67758;BMP180;54562;47.620;18.786;2023-04-01T04:27:56;97094.60;;;7.30
67758;BMP180;54562;47.620;18.786;2023-04-01T04:31:05;97094.40;;;7.30
67758;BMP180;54562;47.620;18.786;2023-04-01T04:34:13;97095.00;;;7.20
67758;BMP180;54562;47.620;18.786;2023-04-01T04:37:21;97089.60;;;7.20
67758;BMP180;54562;47.620;18.786;2023-04-01T04:40:29;97089.20;;;7.20
67758;BMP180;54562;47.620;18.786;2023-04-01T04:43:41;97090.80;;;7.20
67758;BMP180;54562;47.620;18.786;2023-04-01T04:46:50;97086.80;;;7.20
67758;BMP180;54562;47.620;18.786;2023-04-01T04:49:58;97086.60;;;7.20
67758;BMP180;54562;47.620;18.786;2023-04-01T04:53:06;97095.80;;;7.20
67758;BMP180;54562;47.620;18.786;2023-04-01T04:56:18;97093.20;;;7.20
67758;BMP180;54562;47.620;18.786;2023-04-01T04:59:26;97092.00;;;7.22
67758;BMP180;54562;47.620;18.786;2023-04-01T05:02:34;97093.20;;;7.30
67758;BMP180;54562;47.620;18.786;2023-04-01T05:05:53;97087.20;;;7.30
67758;BMP180;54562;47.620;18.786;2023-04-01T05:09:02;97090.20;;;7.40
67758;BMP180;54562;47.620;18.786;2023-04-01T05:12:10;97097.40;;;7.40
67758;BMP180;54562;47.620;18.786;2023-04-01T05:15:18;97101.60;;;7.46
67758;BMP180;54562;47.620;18.786;2023-04-01T05:18:26;97101.20;;;7.50
67758;BMP180;54562;47.620;18.786;2023-04-01T05:21:34;97094.00;;;7.50
67758;BMP180;54562;47.620;18.786;2023-04-01T05:24:42;97090.00;;;7.60
67758;BMP180;54562;47.620;18.786;2023-04-01T05:27:50;97097.00;;;7.62
67758;BMP180;54562;47.620;18.786;2023-04-01T05:31:02;97099.00;;;7.70
67758;BMP180;54562;47.620;18.786;2023-04-01T05:34:11;97091.40;;;7.74
67758;BMP180;54562;47.620;18.786;2023-04-01T05:37:18;97095.40;;;7.80
67758;BMP180;54562;47.620;18.786;2023-04-01T05:40:27;97099.00;;;7.90
67758;BMP180;54562;47.620;18.786;2023-04-01T05:43:36;97112.60;;;7.90
67758;BMP180;54562;47.620;18.786;2023-04-01T05:46:45;97112.80;;;8.00
67758;BMP180;54562;47.620;18.786;2023-04-01T05:49:56;97119.80;;;8.10
67758;BMP180;54562;47.620;18.786;2023-04-01T05:53:04;97114.00;;;8.18
67758;BMP180;54562;47.620;18.786;2023-04-01T05:56:13;97115.40;;;8.30
67758;BMP180;54562;47.620;18.786;2023-04-01T05:59:21;97114.40;;;8.32
67758;BMP180;54562;47.620;18.786;2023-04-01T06:02:29;97109.40;;;8.42
67758;BMP180;54562;47.620;18.786;2023-04-01T06:05:43;97115.80;;;8.50
67758;BMP180;54562;47.620;18.786;2023-04-01T06:08:53;97108.80;;;8.60
67758;BMP180;54562;47.620;18.786;2023-04-01T06:12:20;97101.80;;;8.80
67758;BMP180;54562;47.620;18.786;2023-04-01T06:18:56;97096.60;;;9.00
67758;BMP180;54562;47.620;18.786;2023-04-01T06:22:34;97102.60;;;9.10
67758;BMP180;54562;47.620;18.786;2023-04-01T06:26:09;97103.80;;;9.20
67758;BMP180;54562;47.620;18.786;2023-04-01T06:29:43;97105.40;;;9.30
67758;BMP180;54562;47.620;18.786;2023-04-01T06:33:19;97095.80;;;9.40
67758;BMP180;54562;47.620;18.786;2023-04-01T06:37:18;97096.00;;;9.46
67758;BMP180;54562;47.620;18.786;2023-04-01T06:41:01;97104.20;;;9.56
67758;BMP180;54562;47.620;18.786;2023-04-01T06:44:22;97108.80;;;9.70
67758;BMP180;54562;47.620;18.786;2023-04-01T06:47:52;97103.40;;;9.80
67758;BMP180;54562;47.620;18.786;2023-04-01T06:51:19;97099.60;;;9.90
67758;BMP180;54562;47.620;18.786;2023-04-01T06:54:35;97101.00;;;10.00
67758;BMP180;54562;47.620;18.786;2023-04-01T06:57:49;97102.80;;;10.04
67758;BMP180;54562;47.620;18.786;2023-04-01T07:01:02;97103.00;;;10.10
67758;BMP180;54562;47.620;18.786;2023-04-01T07:04:17;97107.40;;;10.20
67758;BMP180;54562;47.620;18.786;2023-04-01T07:11:05;97120.60;;;10.40
67758;BMP180;54562;47.620;18.786;2023-04-01T07:14:20;97121.40;;;10.50
67758;BMP180;54562;47.620;18.786;2023-04-01T07:17:34;97122.00;;;10.60
67758;BMP180;54562;47.620;18.786;2023-04-01T07:20:46;97118.60;;;10.70
67758;BMP180;54562;47.620;18.786;2023-04-01T07:24:25;97120.60;;;10.70
67758;BMP180;54562;47.620;18.786;2023-04-01T07:27:34;97113.40;;;10.80
67758;BMP180;54562;47.620;18.786;2023-04-01T07:31:05;97114.80;;;10.74
67758;BMP180;54562;47.620;18.786;2023-04-01T07:34:25;97115.20;;;10.80
67758;BMP180;54562;47.620;18.786;2023-04-01T07:37:47;97117.40;;;10.84
67758;BMP180;54562;47.620;18.786;2023-04-01T07:41:12;97113.00;;;10.90
67758;BMP180;54562;47.620;18.786;2023-04-01T07:44:31;97111.60;;;11.00
67758;BMP180;54562;47.620;18.786;2023-04-01T07:47:57;97120.20;;;11.16
67758;BMP180;54562;47.620;18.786;2023-04-01T07:51:17;97126.80;;;11.30
67758;BMP180;54562;47.620;18.786;2023-04-01T07:57:51;97132.20;;;11.40
67758;BMP180;54562;47.620;18.786;2023-04-01T08:01:13;97139.40;;;11.30
67758;BMP180;54562;47.620;18.786;2023-04-01T08:04:40;97138.60;;;11.30
67758;BMP180;54562;47.620;18.786;2023-04-01T08:08:09;97139.40;;;11.24
67758;BMP180;54562;47.620;18.786;2023-04-01T08:11:35;97134.40;;;11.20
67758;BMP180;54562;47.620;18.786;2023-04-01T08:14:55;97134.20;;;11.10
67758;BMP180;54562;47.620;18.786;2023-04-01T08:18:16;97139.00;;;11.10
67758;BMP180;54562;47.620;18.786;2023-04-01T08:21:34;97139.20;;;11.10
67758;BMP180;54562;47.620;18.786;2023-04-01T08:24:46;97132.80;;;11.10
67758;BMP180;54562;47.620;18.786;2023-04-01T08:28:03;97136.40;;;11.10
67758;BMP180;54562;47.620;18.786;2023-04-01T08:31:22;97140.40;;;11.10
67758;BMP180;54562;47.620;18.786;2023-04-01T08:34:38;97131.40;;;11.20
67758;BMP180;54562;47.620;18.786;2023-04-01T08:37:49;97132.00;;;11.32
67758;BMP180;54562;47.620;18.786;2023-04-01T08:49:09;97136.20;;;11.60
67758;BMP180;54562;47.620;18.786;2023-04-01T08:52:45;97133.60;;;11.60
67758;BMP180;54562;47.620;18.786;2023-04-01T08:56:14;97134.00;;;11.80
67758;BMP180;54562;47.620;18.786;2023-04-01T08:59:49;97132.40;;;11.80
67758;BMP180;54562;47.620;18.786;2023-04-01T09:03:46;97128.00;;;11.90
67758;BMP180;54562;47.620;18.786;2023-04-01T09:07:28;97133.20;;;11.90
67758;BMP180;54562;47.620;18.786;2023-04-01T09:11:11;97135.40;;;12.02
67758;BMP180;54562;47.620;18.786;2023-04-01T09:14:35;97137.00;;;12.10
67758;BMP180;54562;47.620;18.786;2023-04-01T09:18:17;97137.00;;;12.00
67758;BMP180;54562;47.620;18.786;2023-04-01T09:25:48;97135.80;;;12.00
67758;BMP180;54562;47.620;18.786;2023-04-01T09:29:15;97135.80;;;12.00
67758;BMP180;54562;47.620;18.786;2023-04-01T09:36:37;97132.60;;;12.10
67758;BMP180;54562;47.620;18.786;2023-04-01T09:43:50;97128.00;;;12.30
67758;BMP180;54562;47.620;18.786;2023-04-01T09:47:32;97135.80;;;12.30
67758;BMP180;54562;47.620;18.786;2023-04-01T09:50:52;97131.00;;;12.40
67758;BMP180;54562;47.620;18.786;2023-04-01T09:54:24;97131.20;;;12.40
67758;BMP180;54562;47.620;18.786;2023-04-01T10:16:21;97128.80;;;12.70
67758;BMP180;54562;47.620;18.786;2023-04-01T10:20:13;97131.40;;;12.80
67758;BMP180;54562;47.620;18.786;2023-04-01T10:23:50;97130.80;;;13.00
67758;BMP180;54562;47.620;18.786;2023-04-01T10:27:42;97128.40;;;13.20
67758;BMP180;54562;47.620;18.786;2023-04-01T10:35:44;97128.80;;;13.50
67758;BMP180;54562;47.620;18.786;2023-04-01T10:39:29;97129.20;;;13.60
67758;BMP180;54562;47.620;18.786;2023-04-01T10:50:56;97138.40;;;13.50
67758;BMP180;54562;47.620;18.786;2023-04-01T10:58:38;97131.00;;;13.60
67758;BMP180;54562;47.620;18.786;2023-04-01T11:10:28;97125.80;;;13.80
67758;BMP180;54562;47.620;18.786;2023-04-01T11:14:25;97126.80;;;14.00
67758;BMP180;54562;47.620;18.786;2023-04-01T11:18:30;97123.60;;;14.00
67758;BMP180;54562;47.620;18.786;2023-04-01T11:26:09;97137.80;;;13.70
67758;BMP180;54562;47.620;18.786;2023-04-01T11:30:02;97131.80;;;13.46
67758;BMP180;54562;47.620;18.786;2023-04-01T11:33:20;97137.40;;;13.32
67758;BMP180;54562;47.620;18.786;2023-04-01T11:39:50;97141.00;;;13.10
67758;BMP180;54562;47.620;18.786;2023-04-01T11:43:14;97139.20;;;13.00
67758;BMP180;54562;47.620;18.786;2023-04-01T11:46:54;97145.00;;;12.90
67758;BMP180;54562;47.620;18.786;2023-04-01T11:50:18;97144.40;;;13.00
67758;BMP180;54562;47.620;18.786;2023-04-01T11:56:56;97142.20;;;13.40
67758;BMP180;54562;47.620;18.786;2023-04-01T12:00:18;97138.40;;;13.60
67758;BMP180;54562;47.620;18.786;2023-04-01T12:03:48;97138.60;;;13.80
67758;BMP180;54562;47.620;18.786;2023-04-01T12:07:08;97140.80;;;13.90
67758;BMP180;54562;47.620;18.786;2023-04-01T12:10:20;97133.80;;;14.00
67758;BMP180;54562;47.620;18.786;2023-04-01T12:13:37;97136.60;;;14.00
67758;BMP180;54562;47.620;18.786;2023-04-01T12:16:55;97138.00;;;14.00
67758;BMP180;54562;47.620;18.786;2023-04-01T12:23:58;97135.20;;;14.10
67758;BMP180;54562;47.620;18.786;2023-04-01T12:27:25;97140.80;;;14.30
67758;BMP180;54562;47.620;18.786;2023-04-01T12:34:18;97136.00;;;14.60
67758;BMP180;54562;47.620;18.786;2023-04-01T12:37:39;97133.60;;;14.70
67758;BMP180;54562;47.620;18.786;2023-04-01T12:41:00;97131.20;;;14.80
67758;BMP180;54562;47.620;18.786;2023-04-01T12:47:57;97126.20;;;14.88
67758;BMP180;54562;47.620;18.786;2023-04-01T12:58:53;97132.00;;;14.60
67758;BMP180;54562;47.620;18.786;2023-04-01T13:02:13;97130.80;;;14.40
67758;BMP180;54562;47.620;18.786;2023-04-01T13:06:03;97133.20;;;14.20
67758;BMP180;54562;47.620;18.786;2023-04-01T13:09:24;97138.60;;;14.10
67758;BMP180;54562;47.620;18.786;2023-04-01T13:12:39;97141.80;;;13.90
67758;BMP180;54562;47.620;18.786;2023-04-01T13:15:52;97152.80;;;13.72
67758;BMP180;54562;47.620;18.786;2023-04-01T13:19:06;97152.00;;;13.50
67758;BMP180;54562;47.620;18.786;2023-04-01T13:22:17;97146.40;;;13.30
67758;BMP180;54562;47.620;18.786;2023-04-01T13:25:34;97149.00;;;13.10
67758;BMP180;54562;47.620;18.786;2023-04-01T13:28:56;97148.40;;;13.00
67758;BMP180;54562;47.620;18.786;2023-04-01T13:32:18;97162.00;;;12.94
67758;BMP180;54562;47.620;18.786;2023-04-01T13:35:45;97164.00;;;12.90
67758;BMP180;54562;47.620;18.786;2023-04-01T13:39:12;97169.20;;;12.70
67758;BMP180;54562;47.620;18.786;2023-04-01T13:42:28;97172.40;;;12.50
67758;BMP180;54562;47.620;18.786;2023-04-01T13:45:46;97172.20;;;12.40
67758;BMP180;54562;47.620;18.786;2023-04-01T13:49:11;97168.40;;;12.30
67758;BMP180;54562;47.620;18.786;2023-04-01T13:52:44;97167.80;;;12.30
67758;BMP180;54562;47.620;18.786;2023-04-01T13:56:28;97164.60;;;12.22
67758;BMP180;54562;47.620;18.786;2023-04-01T14:00:00;97166.80;;;12.28
67758;BMP180;54562;47.620;18.786;2023-04-01T14:03:26;97162.60;;;12.30
67758;BMP180;54562;47.620;18.786;2023-04-01T14:06:40;97159.60;;;12.40
67758;BMP180;54562;47.620;18.786;2023-04-01T14:10:09;97159.40;;;12.50
67758;BMP180;54562;47.620;18.786;2023-04-01T14:13:31;97152.20;;;12.60
67758;BMP180;54562;47.620;18.786;2023-04-01T14:17:10;97154.20;;;12.72
67758;BMP180;54562;47.620;18.786;2023-04-01T14:20:31;97152.60;;;12.90
67758;BMP180;54562;47.620;18.786;2023-04-01T14:23:52;97148.60;;;12.94
67758;BMP180;54562;47.620;18.786;2023-04-01T14:27:21;97150.20;;;13.00
67758;BMP180;54562;47.620;18.786;2023-04-01T14:30:42;97149.00;;;13.10
67758;BMP180;54562;47.620;18.786;2023-04-01T14:34:00;97150.00;;;13.12
67758;BMP180;54562;47.620;18.786;2023-04-01T14:37:19;97142.00;;;13.20
67758;BMP180;54562;47.620;18.786;2023-04-01T14:40:39;97146.40;;;13.30
67758;BMP180;54562;47.620;18.786;2023-04-01T14:44:13;97136.20;;;13.42
67758;BMP180;54562;47.620;18.786;2023-04-01T14:47:39;97141.40;;;13.90
67758;BMP180;54562;47.620;18.786;2023-04-01T14:50:52;97139.80;;;14.20
67758;BMP180;54562;47.620;18.786;2023-04-01T14:54:06;97131.20;;;14.48
67758;BMP180;54562;47.620;18.786;2023-04-01T14:57:20;97133.60;;;14.76
67758;BMP180;54562;47.620;18.786;2023-04-01T15:03:58;97130.00;;;15.40
67758;BMP180;54562;47.620;18.786;2023-04-01T15:07:26;97131.40;;;15.42
67758;BMP180;54562;47.620;18.786;2023-04-01T15:11:13;97129.40;;;15.40
67758;BMP180;54562;47.620;18.786;2023-04-01T15:14:44;97132.60;;;15.40
67758;BMP180;54562;47.620;18.786;2023-04-01T15:18:03;97137.20;;;15.22
67758;BMP180;54562;47.620;18.786;2023-04-01T15:21:40;97136.20;;;15.10
67758;BMP180;54562;47.620;18.786;2023-04-01T15:25:01;97134.60;;;14.90
67758;BMP180;54562;47.620;18.786;2023-04-01T15:28:19;97129.60;;;14.80
67758;BMP180;54562;47.620;18.786;2023-04-01T15:31:31;97131.20;;;14.60
67758;BMP180;54562;47.620;18.786;2023-04-01T15:34:43;97139.00;;;14.50
67758;BMP180;54562;47.620;18.786;2023-04-01T15:37:55;97143.00;;;14.40
67758;BMP180;54562;47.620;18.786;2023-04-01T15:41:14;97142.40;;;14.40
67758;BMP180;54562;47.620;18.786;2023-04-01T15:44:42;97146.00;;;14.38
67758;BMP180;54562;47.620;18.786;2023-04-01T15:47:59;97143.20;;;14.24
67758;BMP180;54562;47.620;18.786;2023-04-01T15:51:22;97148.40;;;14.10
67758;BMP180;54562;47.620;18.786;2023-04-01T15:54:59;97150.20;;;13.90
67758;BMP180;54562;47.620;18.786;2023-04-01T15:58:25;97155.80;;;13.70
67758;BMP180;54562;47.620;18.786;2023-04-01T16:01:46;97152.60;;;13.50
67758;BMP180;54562;47.620;18.786;2023-04-01T16:05:01;97159.80;;;13.30
67758;BMP180;54562;47.620;18.786;2023-04-01T16:08:42;97166.00;;;13.24
67758;BMP180;54562;47.620;18.786;2023-04-01T16:11:59;97162.40;;;13.10
67758;BMP180;54562;47.620;18.786;2023-04-01T16:15:14;97172.60;;;13.10
67758;BMP180;54562;47.620;18.786;2023-04-01T16:21:44;97175.20;;;12.90
67758;BMP180;54562;47.620;18.786;2023-04-01T16:24:56;97181.40;;;12.80
67758;BMP180;54562;47.620;18.786;2023-04-01T16:28:19;97184.20;;;12.70
67758;BMP180;54562;47.620;18.786;2023-04-01T16:31:32;97179.80;;;12.70
67758;BMP180;54562;47.620;18.786;2023-04-01T16:34:46;97185.00;;;12.60
67758;BMP180;54562;47.620;18.786;2023-04-01T16:38:01;97187.40;;;12.60
67758;BMP180;54562;47.620;18.786;2023-04-01T16:41:18;97194.60;;;12.50
67758;BMP180;54562;47.620;18.786;2023-04-01T16:44:28;97196.20;;;12.50
67758;BMP180;54562;47.620;18.786;2023-04-01T16:47:38;97195.40;;;12.40
67758;BMP180;54562;47.620;18.786;2023-04-01T16:50:53;97199.80;;;12.40
67758;BMP180;54562;47.620;18.786;2023-04-01T16:54:06;97202.60;;;12.30
67758;BMP180;54562;47.620;18.786;2023-04-01T16:57:28;97202.40;;;12.30
67758;BMP180;54562;47.620;18.786;2023-04-01T17:00:41;97208.20;;;12.20
67758;BMP180;54562;47.620;18.786;2023-04-01T17:04:06;97215.00;;;12.10
67758;BMP180;54562;47.620;18.786;2023-04-01T17:07:23;97217.00;;;12.00
67758;BMP180;54562;47.620;18.786;2023-04-01T17:10:46;97211.40;;;11.90
67758;BMP180;54562;47.620;18.786;2023-04-01T17:14:05;97221.60;;;11.80
67758;BMP180;54562;47.620;18.786;2023-04-01T17:17:22;97223.80;;;11.70
67758;BMP180;54562;47.620;18.786;2023-04-01T17:20:48;97224.40;;;11.60
67758;BMP180;54562;47.620;18.786;2023-04-01T17:24:05;97227.60;;;11.50
67758;BMP180;54562;47.620;18.786;2023-04-01T17:27:23;97230.20;;;11.40
67758;BMP180;54562;47.620;18.786;2023-04-01T17:30:35;97231.20;;;11.30
67758;BMP180;54562;47.620;18.786;2023-04-01T17:37:30;97233.80;;;11.06
67758;BMP180;54562;47.620;18.786;2023-04-01T17:40:57;97245.60;;;10.90
67758;BMP180;54562;47.620;18.786;2023-04-01T17:44:15;97246.40;;;10.80
67758;BMP180;54562;47.620;18.786;2023-04-01T17:47:43;97254.00;;;10.64
67758;BMP180;54562;47.620;18.786;2023-04-01T17:51:08;97255.40;;;10.50
67758;BMP180;54562;47.620;18.786;2023-04-01T17:54:24;97262.20;;;10.40
67758;BMP180;54562;47.620;18.786;2023-04-01T18:00:50;97262.20;;;10.18
67758;BMP180;54562;47.620;18.786;2023-04-01T18:04:22;97262.40;;;10.10
67758;BMP180;54562;47.620;18.786;2023-04-01T18:10:47;97267.00;;;10.00
67758;BMP180;54562;47.620;18.786;2023-04-01T18:14:11;97279.40;;;9.90
67758;BMP180;54562;47.620;18.786;2023-04-01T18:17:25;97277.20;;;9.90
67758;BMP180;54562;47.620;18.786;2023-04-01T18:20:41;97286.20;;;9.82
67758;BMP180;54562;47.620;18.786;2023-04-01T18:23:53;97294.20;;;9.80
67758;BMP180;54562;47.620;18.786;2023-04-01T18:27:17;97297.80;;;9.70
67758;BMP180;54562;47.620;18.786;2023-04-01T18:30:28;97308.20;;;9.60
67758;BMP180;54562;47.620;18.786;2023-04-01T18:33:42;97310.00;;;9.60
67758;BMP180;54562;47.620;18.786;2023-04-01T18:36:55;97312.00;;;9.50
67758;BMP180;54562;47.620;18.786;2023-04-01T18:40:13;97316.40;;;9.50
67758;BMP180;54562;47.620;18.786;2023-04-01T18:43:29;97319.20;;;9.40
67758;BMP180;54562;47.620;18.786;2023-04-01T18:46:47;97324.20;;;9.34
67758;BMP180;54562;47.620;18.786;2023-04-01T18:50:06;97329.40;;;9.30
67758;BMP180;54562;47.620;18.786;2023-04-01T18:53:41;97334.20;;;9.30
67758;BMP180;54562;47.620;18.786;2023-04-01T18:56:50;97331.80;;;9.20
67758;BMP180;54562;47.620;18.786;2023-04-01T19:00:12;97335.20;;;9.20
67758;BMP180;54562;47.620;18.786;2023-04-01T19:03:25;97339.80;;;9.20
67758;BMP180;54562;47.620;18.786;2023-04-01T19:06:44;97342.60;;;9.18
67758;BMP180;54562;47.620;18.786;2023-04-01T19:09:53;97340.80;;;9.10
67758;BMP180;54562;47.620;18.786;2023-04-01T19:13:17;97337.40;;;9.10
67758;BMP180;54562;47.620;18.786;2023-04-01T19:16:40;97336.40;;;9.00
67758;BMP180;54562;47.620;18.786;2023-04-01T19:19:58;97334.80;;;8.98
67758;BMP180;54562;47.620;18.786;2023-04-01T19:23:34;97337.80;;;8.90
67758;BMP180;54562;47.620;18.786;2023-04-01T19:26:49;97332.80;;;8.90
67758;BMP180;54562;47.620;18.786;2023-04-01T19:30:14;97332.60;;;8.80
67758;BMP180;54562;47.620;18.786;2023-04-01T19:36:50;97334.40;;;8.80
67758;BMP180;54562;47.620;18.786;2023-04-01T19:40:06;97335.40;;;8.74
67758;BMP180;54562;47.620;18.786;2023-04-01T19:43:39;97339.60;;;8.70
67758;BMP180;54562;47.620;18.786;2023-04-01T19:46:51;97346.20;;;8.70
67758;BMP180;54562;47.620;18.786;2023-04-01T19:50:04;97346.60;;;8.70
67758;BMP180;54562;47.620;18.786;2023-04-01T19:53:21;97347.60;;;8.66
67758;BMP180;54562;47.620;18.786;2023-04-01T19:56:36;97348.20;;;8.62
67758;BMP180;54562;47.620;18.786;2023-04-01T19:59:50;97353.40;;;8.68
67758;BMP180;54562;47.620;18.786;2023-04-01T20:03:04;97352.00;;;8.70
67758;BMP180;54562;47.620;18.786;2023-04-01T20:06:26;97347.20;;;8.70
67758;BMP180;54562;47.620;18.786;2023-04-01T20:09:48;97345.40;;;8.70
67758;BMP180;54562;47.620;18.786;2023-04-01T20:13:01;97347.80;;;8.70
67758;BMP180;54562;47.620;18.786;2023-04-01T20:16:12;97344.00;;;8.70
67758;BMP180;54562;47.620;18.786;2023-04-01T20:19:28;97351.60;;;8.68
67758;BMP180;54562;47.620;18.786;2023-04-01T20:23:02;97350.80;;;8.66
67758;BMP180;54562;47.620;18.786;2023-04-01T20:26:12;97353.20;;;8.60
67758;BMP180;54562;47.620;18.786;2023-04-01T20:29:36;97350.40;;;8.60
67758;BMP180;54562;47.620;18.786;2023-04-01T20:33:00;97358.00;;;8.50
67758;BMP180;54562;47.620;18.786;2023-04-01T20:36:15;97362.20;;;8.44
67758;BMP180;54562;47.620;18.786;2023-04-01T20:39:43;97358.20;;;8.40
67758;BMP180;54562;47.620;18.786;2023-04-01T20:43:20;97364.80;;;8.30
67758;BMP180;54562;47.620;18.786;2023-04-01T20:46:36;97369.60;;;8.20
67758;BMP180;54562;47.620;18.786;2023-04-01T20:49:48;97365.80;;;8.20
67758;BMP180;54562;47.620;18.786;2023-04-01T20:53:09;97363.80;;;8.10
67758;BMP180;54562;47.620;18.786;2023-04-01T20:56:30;97368.20;;;8.10
67758;BMP180;54562;47.620;18.786;2023-04-01T21:00:15;97371.40;;;8.00
67758;BMP180;54562;47.620;18.786;2023-04-01T21:03:36;97380.00;;;8.00
67758;BMP180;54562;47.620;18.786;2023-04-01T21:07:08;97380.00;;;7.90
67758;BMP180;54562;47.620;18.786;2023-04-01T21:10:31;97386.80;;;7.90
67758;BMP180;54562;47.620;18.786;2023-04-01T21:13:52;97384.20;;;7.80